createdAt,value
2023-04-05T12:15:37.504Z,9.1
2023-04-05T12:26:49.000Z,9.1
2023-04-05T13:00:27.639Z,10.6
2023-04-05T13:51:05.776Z,10.9
2023-04-05T18:14:37.653Z,7.6
2023-04-05T18:42:29.874Z,6.9
2023-04-05T18:47:41.322Z,6.9
2023-04-05T18:53:20.193Z,6.7
2023-04-05T18:59:06.259Z,6.4
2023-04-05T19:04:33.689Z,6.6
2023-04-05T19:10:15.623Z,6.2
2023-04-05T19:15:36.841Z,6.1
2023-04-05T19:26:46.599Z,5.8
2023-04-05T19:32:32.051Z,5.9
2023-04-05T19:37:37.315Z,5.1
2023-04-05T19:43:17.012Z,4.9
2023-04-05T19:48:58.916Z,5
2023-04-05T19:54:21.483Z,4.4
2023-04-05T20:00:01.219Z,5.2
2023-04-05T20:05:26.552Z,5.2
2023-04-05T20:16:34.878Z,4.5
2023-04-05T20:27:39.956Z,4.7
2023-04-05T20:33:41.837Z,4.7
2023-04-05T20:38:57.881Z,4.5
2023-04-05T21:12:41.347Z,4.2
2023-04-05T21:17:57.166Z,4.1
2023-04-05T21:23:50.283Z,4.1
2023-04-05T21:29:24.056Z,3.7
2023-04-05T21:34:53.767Z,3.8
2023-04-05T21:40:28.954Z,3.7
2023-04-05T21:45:52.760Z,3.6
2023-04-05T21:51:11.198Z,3.7
2023-04-05T21:56:49.661Z,3.6
2023-04-05T22:02:15.247Z,3.5
2023-04-05T22:07:51.285Z,3.6
2023-04-05T22:24:29.400Z,3.5
2023-04-05T22:30:01.664Z,2.7
2023-04-05T22:41:16.660Z,2
2023-04-05T22:46:58.910Z,1.9
2023-04-05T22:52:15.363Z,2.4
2023-04-05T22:58:04.723Z,2.2
2023-04-05T23:03:23.473Z,2
2023-04-05T23:09:13.652Z,1.7
2023-04-05T23:14:52.797Z,1.5
2023-04-05T23:20:10.217Z,2
2023-04-05T23:25:50.718Z,2
2023-04-05T23:31:21.655Z,2.3
2023-04-05T23:36:52.563Z,2.5
2023-04-05T23:42:12.338Z,2.1
2023-04-05T23:47:53.034Z,1.1
2023-04-05T23:53:38.860Z,1
2023-04-05T23:58:55.089Z,1
